createdAt,value
2019-02-17T00:00:38.369Z,6.30
2019-02-17T00:03:13.591Z,5.90
2019-02-17T00:05:48.900Z,6.00
2019-02-17T00:08:24.032Z,6.33
2019-02-17T00:10:59.402Z,6.03
2019-02-17T00:13:34.616Z,5.63
2019-02-17T00:16:09.852Z,6.27
2019-02-17T00:18:45.064Z,5.77
2019-02-17T00:21:20.294Z,6.37
2019-02-17T00:23:55.569Z,6.50
2019-02-17T00:26:30.756Z,6.27
2019-02-17T00:29:06.013Z,5.87
2019-02-17T00:31:41.162Z,6.70
2019-02-17T00:34:16.440Z,5.80
2019-02-17T00:36:51.668Z,6.60
2019-02-17T00:39:26.883Z,6.43
2019-02-17T00:42:02.053Z,6.03
2019-02-17T00:44:37.260Z,6.67
2019-02-17T00:47:12.404Z,6.00
2019-02-17T00:49:47.621Z,6.13
2019-02-17T00:52:22.790Z,6.73
2019-02-17T00:54:58.016Z,6.43
2019-02-17T00:57:33.193Z,5.63
2019-02-17T01:00:08.889Z,6.67
2019-02-17T01:02:44.132Z,6.20
2019-02-17T01:05:19.339Z,5.70
2019-02-17T01:07:54.560Z,7.77
2019-02-17T01:10:29.700Z,6.60
2019-02-17T01:13:05.034Z,6.13
2019-02-17T01:15:40.164Z,6.33
2019-02-17T01:18:15.335Z,6.13
2019-02-17T01:20:50.603Z,6.50
2019-02-17T01:23:25.821Z,5.93
2019-02-17T01:26:01.016Z,6.00
2019-02-17T01:28:36.210Z,6.57
2019-02-17T01:31:11.369Z,6.20
2019-02-17T01:33:46.663Z,6.37
2019-02-17T01:36:21.874Z,6.23
2019-02-17T01:38:57.190Z,6.00
2019-02-17T01:41:32.452Z,7.00
2019-02-17T01:44:07.705Z,6.97
2019-02-17T01:46:42.937Z,6.60
2019-02-17T01:49:18.159Z,6.93
2019-02-17T01:51:53.316Z,6.27
2019-02-17T01:54:28.653Z,6.30
2019-02-17T01:57:03.860Z,5.87
2019-02-17T01:59:39.026Z,7.30
2019-02-17T02:02:14.082Z,6.47
2019-02-17T02:04:49.293Z,7.37
2019-02-17T02:07:24.516Z,6.40
2019-02-17T02:09:59.743Z,5.83
2019-02-17T02:12:34.880Z,6.30
2019-02-17T02:15:10.603Z,6.70
2019-02-17T02:17:45.821Z,6.80
2019-02-17T02:20:21.039Z,6.33
2019-02-17T02:22:56.312Z,6.83
2019-02-17T02:25:31.531Z,7.50
2019-02-17T02:28:06.731Z,7.17
2019-02-17T02:30:41.970Z,6.33
2019-02-17T02:33:17.113Z,6.30
2019-02-17T02:35:52.333Z,6.90
2019-02-17T02:38:27.566Z,6.47
2019-02-17T02:41:02.794Z,6.83
2019-02-17T02:43:37.955Z,6.60
2019-02-17T02:46:13.253Z,6.60
2019-02-17T02:48:48.528Z,6.70
2019-02-17T02:51:23.740Z,6.87
2019-02-17T02:53:59.357Z,6.47
2019-02-17T02:56:34.504Z,6.43
2019-02-17T02:59:09.720Z,6.30
2019-02-17T03:01:45.023Z,6.47
2019-02-17T03:04:20.220Z,6.70
2019-02-17T03:07:00.770Z,6.60
2019-02-17T03:09:35.998Z,6.63
2019-02-17T03:12:11.324Z,6.80
2019-02-17T03:14:46.462Z,7.07
2019-02-17T03:17:21.829Z,6.53
2019-02-17T03:19:56.972Z,6.67
2019-02-17T03:22:32.285Z,6.70
2019-02-17T03:25:07.530Z,6.27
2019-02-17T03:27:42.702Z,6.87
2019-02-17T03:30:18.001Z,7.27
2019-02-17T03:32:53.311Z,7.53
2019-02-17T03:35:28.616Z,6.50
2019-02-17T03:38:03.872Z,7.00
2019-02-17T03:40:39.069Z,6.77
2019-02-17T03:43:14.227Z,7.13
2019-02-17T03:45:49.366Z,7.40
2019-02-17T03:48:24.593Z,7.03
2019-02-17T03:50:59.731Z,7.47
2019-02-17T03:53:34.970Z,7.50
2019-02-17T03:56:10.194Z,7.20
2019-02-17T03:58:45.417Z,7.37
2019-02-17T04:01:20.618Z,7.63
2019-02-17T04:03:55.933Z,7.57
2019-02-17T04:06:31.213Z,6.93
2019-02-17T04:09:08.264Z,7.60
2019-02-17T04:11:43.405Z,6.83
2019-02-17T04:14:18.635Z,8.00
2019-02-17T04:16:53.920Z,7.37
2019-02-17T04:19:29.167Z,6.50
2019-02-17T04:22:04.392Z,6.60
2019-02-17T04:24:39.623Z,7.00
2019-02-17T04:27:14.843Z,6.83
2019-02-17T04:29:50.005Z,6.63
2019-02-17T04:32:25.265Z,6.90
2019-02-17T04:35:00.771Z,7.43
2019-02-17T04:37:35.965Z,6.73
2019-02-17T04:40:11.349Z,7.27
2019-02-17T04:42:46.593Z,6.10
2019-02-17T04:45:21.885Z,6.90
2019-02-17T04:47:57.114Z,6.60
2019-02-17T04:50:32.344Z,6.70
2019-02-17T04:53:07.555Z,6.47
2019-02-17T04:55:42.845Z,7.07
2019-02-17T04:58:17.988Z,6.93
2019-02-17T05:00:53.280Z,7.53
2019-02-17T05:03:28.561Z,7.00
2019-02-17T05:06:03.796Z,7.43
2019-02-17T05:08:38.948Z,6.60
2019-02-17T05:11:14.182Z,6.80
2019-02-17T05:13:49.466Z,7.20
2019-02-17T05:16:24.625Z,7.67
2019-02-17T05:18:59.833Z,7.50
2019-02-17T05:21:35.081Z,6.80
2019-02-17T05:24:10.285Z,6.43
2019-02-17T05:26:45.572Z,6.73
2019-02-17T05:29:20.710Z,6.93
2019-02-17T05:31:55.937Z,6.90
2019-02-17T05:34:31.141Z,6.93
2019-02-17T05:37:06.304Z,7.53
2019-02-17T05:39:41.515Z,7.40
2019-02-17T05:42:16.825Z,7.10
2019-02-17T05:44:52.045Z,7.30
2019-02-17T05:47:27.213Z,6.43
2019-02-17T05:50:02.439Z,6.77
2019-02-17T05:52:37.669Z,7.03
2019-02-17T05:55:12.965Z,7.50
2019-02-17T05:57:48.228Z,7.23
2019-02-17T06:00:27.295Z,7.17
2019-02-17T06:03:02.494Z,6.80
2019-02-17T06:05:37.644Z,7.47
2019-02-17T06:08:12.941Z,7.67
2019-02-17T06:10:48.089Z,7.20
2019-02-17T06:13:23.315Z,7.30
2019-02-17T06:15:58.512Z,6.70
2019-02-17T06:18:33.741Z,7.10
2019-02-17T06:21:08.970Z,6.97
2019-02-17T06:23:44.186Z,7.57
2019-02-17T06:26:19.508Z,7.40
2019-02-17T06:28:54.677Z,6.97
2019-02-17T06:31:29.873Z,7.50
2019-02-17T06:34:05.020Z,6.70
2019-02-17T06:36:40.923Z,6.57
2019-02-17T06:39:16.436Z,7.07
2019-02-17T06:41:51.577Z,6.90
2019-02-17T06:44:26.734Z,7.03
2019-02-17T06:47:05.516Z,7.10
2019-02-17T06:49:40.744Z,7.20
2019-02-17T06:52:15.962Z,8.80
2019-02-17T06:55:09.134Z,7.60
2019-02-17T06:57:44.372Z,6.80
2019-02-17T07:00:26.769Z,6.90
2019-02-17T07:03:02.005Z,7.73
2019-02-17T07:05:56.669Z,7.70
2019-02-17T07:08:31.776Z,7.90
2019-02-17T07:11:07.037Z,7.80
2019-02-17T07:13:42.238Z,7.53
2019-02-17T07:16:18.972Z,8.37
2019-02-17T07:18:54.116Z,8.07
2019-02-17T07:21:29.271Z,7.47
2019-02-17T07:24:04.421Z,6.90
2019-02-17T07:26:39.716Z,7.63
2019-02-17T07:29:16.758Z,7.53
2019-02-17T07:31:51.786Z,7.70
2019-02-17T07:34:26.983Z,7.43
2019-02-17T07:37:02.205Z,8.53
2019-02-17T07:39:37.348Z,7.93
2019-02-17T07:42:12.574Z,7.63
2019-02-17T07:44:47.796Z,8.10
2019-02-17T07:47:23.022Z,7.97
2019-02-17T07:49:58.180Z,8.00
2019-02-17T07:52:34.313Z,8.57
2019-02-17T07:55:09.603Z,8.17
2019-02-17T07:57:44.828Z,8.50
2019-02-17T08:00:19.975Z,8.53
2019-02-17T08:02:55.331Z,8.20
2019-02-17T08:05:30.725Z,8.67
2019-02-17T08:08:05.942Z,8.23
2019-02-17T08:10:41.097Z,8.97
2019-02-17T08:13:16.260Z,8.10
2019-02-17T08:15:51.419Z,8.20
2019-02-17T08:18:26.650Z,9.20
2019-02-17T08:21:01.856Z,8.37
2019-02-17T08:23:37.089Z,7.73
2019-02-17T08:26:12.299Z,8.00
2019-02-17T08:28:47.602Z,8.23
2019-02-17T08:31:22.873Z,8.97
2019-02-17T08:33:58.190Z,7.50
2019-02-17T08:36:33.459Z,8.03
2019-02-17T08:39:08.686Z,7.40
2019-02-17T08:41:43.969Z,7.87
2019-02-17T08:44:19.301Z,7.50
2019-02-17T08:46:54.438Z,7.63
2019-02-17T08:49:29.680Z,7.87
2019-02-17T08:52:04.815Z,7.57
2019-02-17T08:54:40.028Z,7.80
2019-02-17T08:57:15.300Z,7.03
2019-02-17T08:59:50.696Z,7.53
2019-02-17T09:02:25.987Z,6.70
2019-02-17T09:05:01.287Z,7.40
2019-02-17T09:07:36.522Z,6.90
2019-02-17T09:10:12.189Z,7.23
2019-02-17T09:12:47.396Z,7.60
2019-02-17T09:15:22.618Z,7.33
2019-02-17T09:17:57.752Z,6.80
2019-02-17T09:20:32.917Z,6.10
2019-02-17T09:23:08.074Z,6.60
2019-02-17T09:25:43.292Z,7.03
2019-02-17T09:28:18.435Z,6.60
2019-02-17T09:30:53.738Z,6.13
2019-02-17T09:33:28.953Z,6.60
2019-02-17T09:36:04.172Z,6.57
2019-02-17T09:38:39.369Z,6.40
2019-02-17T09:41:14.700Z,6.00
2019-02-17T09:43:50.009Z,6.53
2019-02-17T09:46:25.277Z,6.43
2019-02-17T09:49:00.496Z,6.40
2019-02-17T09:51:35.725Z,6.83
2019-02-17T09:54:10.937Z,5.80
2019-02-17T09:56:46.220Z,6.70
2019-02-17T09:59:21.437Z,6.17
2019-02-17T10:01:56.690Z,6.73
2019-02-17T10:04:31.972Z,6.23
2019-02-17T10:07:07.304Z,6.20
2019-02-17T10:09:42.475Z,6.47
2019-02-17T10:12:17.685Z,6.00
2019-02-17T10:14:52.901Z,6.37
2019-02-17T10:17:28.215Z,5.87
2019-02-17T10:20:03.429Z,6.20
2019-02-17T10:22:38.728Z,6.23
2019-02-17T10:25:14.057Z,6.37
2019-02-17T10:27:49.281Z,5.87
2019-02-17T10:30:24.448Z,6.10
2019-02-17T10:32:59.773Z,6.10
2019-02-17T10:35:34.981Z,6.17
2019-02-17T10:38:10.218Z,5.77
2019-02-17T10:40:45.528Z,5.90
2019-02-17T10:43:20.751Z,5.80
2019-02-17T10:45:56.036Z,6.00
2019-02-17T10:48:31.305Z,6.10
2019-02-17T10:51:06.516Z,6.23
2019-02-17T10:53:41.670Z,6.23
2019-02-17T10:56:16.876Z,5.73
2019-02-17T10:58:52.181Z,6.07
2019-02-17T11:01:27.468Z,6.00
2019-02-17T11:04:07.773Z,5.90
2019-02-17T11:06:42.993Z,5.80
2019-02-17T11:09:20.188Z,5.43
2019-02-17T11:11:55.434Z,5.93
2019-02-17T11:14:30.744Z,6.27
2019-02-17T11:17:05.908Z,5.57
2019-02-17T11:19:41.166Z,5.50
2019-02-17T11:22:22.943Z,6.30
2019-02-17T11:24:53.152Z,5.93
2019-02-17T11:27:28.289Z,5.60
2019-02-17T11:30:05.397Z,5.43
2019-02-17T11:32:40.389Z,5.60
2019-02-17T11:35:15.633Z,5.80
2019-02-17T11:37:50.900Z,5.77
2019-02-17T11:40:26.152Z,5.30
2019-02-17T11:43:02.497Z,5.40
2019-02-17T11:45:37.717Z,5.00
2019-02-17T11:48:12.929Z,5.43
2019-02-17T11:50:48.161Z,5.50
2019-02-17T11:53:23.301Z,7.12
2019-02-17T11:55:58.536Z,5.70
2019-02-17T11:58:33.869Z,5.57
2019-02-17T12:01:09.104Z,6.27
2019-02-17T12:03:44.380Z,5.90
2019-02-17T12:06:19.553Z,6.37
2019-02-17T12:08:54.764Z,6.03
2019-02-17T12:11:29.921Z,6.87
2019-02-17T12:14:05.152Z,6.20
2019-02-17T12:16:40.326Z,6.37
2019-02-17T12:19:16.482Z,6.83
2019-02-17T12:21:56.875Z,6.87
2019-02-17T12:24:40.163Z,7.57
2019-02-17T12:27:52.865Z,6.50
2019-02-17T12:30:28.137Z,6.33
2019-02-17T12:33:03.327Z,7.13
2019-02-17T12:35:38.608Z,6.47
2019-02-17T12:38:13.940Z,6.53
2019-02-17T12:40:49.069Z,7.07
2019-02-17T12:43:24.229Z,6.77
2019-02-17T12:45:59.595Z,7.20
2019-02-17T12:48:34.889Z,6.70
2019-02-17T12:51:10.027Z,7.70
2019-02-17T12:53:45.257Z,6.53
2019-02-17T12:56:20.393Z,6.50
2019-02-17T12:58:55.608Z,8.80
2019-02-17T13:01:30.904Z,7.70
2019-02-17T13:04:06.139Z,7.87
2019-02-17T13:06:41.301Z,9.03
2019-02-17T13:09:16.712Z,8.47
2019-02-17T13:11:51.980Z,7.57
2019-02-17T13:14:27.259Z,5.50
2019-02-17T13:17:02.453Z,5.03
2019-02-17T13:19:37.690Z,4.60
2019-02-17T13:22:12.949Z,5.13
2019-02-17T13:24:48.201Z,5.27
2019-02-17T13:27:23.624Z,5.10
2019-02-17T13:29:58.843Z,4.73
2019-02-17T13:32:33.997Z,4.50
2019-02-17T13:35:09.227Z,4.17
2019-02-17T13:37:44.454Z,4.83
2019-02-17T13:40:19.786Z,4.57
2019-02-17T13:42:55.058Z,4.87
2019-02-17T13:45:30.421Z,4.07
2019-02-17T13:48:06.228Z,4.50
2019-02-17T13:50:41.441Z,4.23
2019-02-17T13:53:16.596Z,5.17
2019-02-17T13:55:52.065Z,4.00
2019-02-17T13:58:27.331Z,3.90
2019-02-17T14:01:02.593Z,4.10
2019-02-17T14:03:37.762Z,4.87
2019-02-17T14:06:13.055Z,4.50
2019-02-17T14:08:48.188Z,4.30
2019-02-17T14:11:23.420Z,4.50
2019-02-17T14:13:58.620Z,4.43
2019-02-17T14:16:34.004Z,4.40
2019-02-17T14:19:09.145Z,4.50
2019-02-17T14:21:44.382Z,4.00
2019-02-17T14:24:19.580Z,3.97
2019-02-17T14:26:54.745Z,3.90
2019-02-17T14:29:29.890Z,4.50
2019-02-17T14:32:05.060Z,3.90
2019-02-17T14:34:40.345Z,4.00
2019-02-17T14:37:15.510Z,4.13
2019-02-17T14:39:50.666Z,4.60
2019-02-17T14:42:25.973Z,4.00
2019-02-17T14:45:01.120Z,3.90
2019-02-17T14:47:36.292Z,3.83
2019-02-17T14:50:12.513Z,3.93
2019-02-17T14:52:48.002Z,3.80
2019-02-17T14:55:23.248Z,4.17
2019-02-17T14:58:05.088Z,4.20
2019-02-17T15:00:35.227Z,3.87
2019-02-17T15:03:10.452Z,4.00
2019-02-17T15:05:45.760Z,4.10
2019-02-17T15:08:20.971Z,3.33
2019-02-17T15:10:56.203Z,3.90
2019-02-17T15:13:31.439Z,4.10
2019-02-17T15:16:06.716Z,3.83
2019-02-17T15:18:41.971Z,3.90
2019-02-17T15:21:17.202Z,4.03
2019-02-17T15:23:52.505Z,3.67
2019-02-17T15:26:27.669Z,4.03
2019-02-17T15:29:02.898Z,3.60
2019-02-17T15:31:38.043Z,3.70
2019-02-17T15:34:18.767Z,3.50
2019-02-17T15:36:50.151Z,3.47
2019-02-17T15:39:25.387Z,3.70
2019-02-17T15:42:00.521Z,3.83
2019-02-17T15:44:35.688Z,3.60
2019-02-17T15:47:10.965Z,3.67
2019-02-17T15:49:46.203Z,3.90
2019-02-17T15:52:21.432Z,3.80
2019-02-17T15:54:56.660Z,3.70
2019-02-17T15:57:31.944Z,3.70
2019-02-17T16:00:09.813Z,3.97
2019-02-17T16:02:44.917Z,3.63
2019-02-17T16:05:20.192Z,4.10
2019-02-17T16:07:55.309Z,3.83
2019-02-17T16:10:30.517Z,3.60
2019-02-17T16:13:05.812Z,3.80
2019-02-17T16:15:41.121Z,4.60
2019-02-17T16:18:16.259Z,3.87
2019-02-17T16:20:51.439Z,4.50
2019-02-17T16:23:26.721Z,4.40
2019-02-17T16:26:01.957Z,3.60
2019-02-17T16:28:37.191Z,3.97
2019-02-17T16:31:12.454Z,4.30
2019-02-17T16:33:48.010Z,4.23
2019-02-17T16:36:23.274Z,3.93
2019-02-17T16:38:58.412Z,4.10
2019-02-17T16:41:33.644Z,3.47
2019-02-17T16:44:08.867Z,3.60
2019-02-17T16:50:36.456Z,3.90
2019-02-17T16:53:11.708Z,3.43
2019-02-17T16:55:46.839Z,3.13
2019-02-17T16:58:22.085Z,3.30
2019-02-17T17:00:57.306Z,3.50
2019-02-17T17:03:32.484Z,3.80
2019-02-17T17:06:07.696Z,4.03
2019-02-17T17:08:42.930Z,3.70
2019-02-17T17:11:18.144Z,3.70
2019-02-17T17:13:53.381Z,3.80
2019-02-17T17:16:28.533Z,4.20
2019-02-17T17:19:03.854Z,4.47
2019-02-17T17:22:05.398Z,4.33
2019-02-17T17:24:40.967Z,3.90
2019-02-17T17:27:16.106Z,3.97
2019-02-17T17:29:52.613Z,2.83
2019-02-17T17:35:40.456Z,4.50
2019-02-17T17:38:15.692Z,3.93
2019-02-17T17:40:50.916Z,4.00
2019-02-17T17:43:26.140Z,3.70
2019-02-17T17:46:01.370Z,3.70
2019-02-17T17:48:36.532Z,4.30
2019-02-17T17:51:12.304Z,3.70
2019-02-17T17:53:47.655Z,3.97
2019-02-17T17:56:22.970Z,3.83
2019-02-17T17:58:58.176Z,3.80
2019-02-17T18:01:33.385Z,3.70
2019-02-17T18:04:08.544Z,3.63
2019-02-17T18:06:43.861Z,4.20
2019-02-17T18:09:19.078Z,4.13
2019-02-17T18:11:54.325Z,4.00
2019-02-17T18:14:29.539Z,4.70
2019-02-17T18:17:04.785Z,4.10
2019-02-17T18:19:40.013Z,3.83
2019-02-17T18:22:15.349Z,4.57
2019-02-17T18:24:50.635Z,4.47
2019-02-17T18:27:25.778Z,4.27
2019-02-17T18:30:00.985Z,4.03
2019-02-17T18:32:36.142Z,4.23
2019-02-17T18:35:19.256Z,4.20
2019-02-17T18:37:48.219Z,4.13
2019-02-17T18:40:23.492Z,4.90
2019-02-17T18:42:58.657Z,5.13
2019-02-17T18:45:33.877Z,6.00
2019-02-17T18:48:09.105Z,7.90
2019-02-17T18:50:44.297Z,5.70
2019-02-17T18:53:19.538Z,5.97
2019-02-17T18:55:54.756Z,5.17
2019-02-17T18:58:29.978Z,6.03
2019-02-17T19:01:05.181Z,5.57
2019-02-17T19:03:40.352Z,5.20
2019-02-17T19:06:15.499Z,5.50
2019-02-17T19:08:50.651Z,6.57
2019-02-17T19:11:25.864Z,7.37
2019-02-17T19:14:01.076Z,6.57
2019-02-17T19:16:36.344Z,6.07
2019-02-17T19:19:11.560Z,4.90
2019-02-17T19:21:46.815Z,5.67
2019-02-17T19:24:22.156Z,5.70
2019-02-17T19:26:57.437Z,6.10
2019-02-17T19:29:32.620Z,7.13
2019-02-17T19:32:07.783Z,6.50
2019-02-17T19:34:43.008Z,5.73
2019-02-17T19:37:18.216Z,6.57
2019-02-17T19:39:53.436Z,6.37
2019-02-17T19:42:28.564Z,7.17
2019-02-17T19:45:03.789Z,6.87
2019-02-17T19:47:38.993Z,6.50
2019-02-17T19:50:14.575Z,6.87
2019-02-17T19:52:49.776Z,7.47
2019-02-17T19:55:24.946Z,6.57
2019-02-17T19:58:00.237Z,5.80
2019-02-17T20:00:35.455Z,6.77
2019-02-17T20:03:20.681Z,6.20
2019-02-17T20:05:58.523Z,6.00
2019-02-17T20:08:33.733Z,6.10
2019-02-17T20:11:08.892Z,7.00
2019-02-17T20:13:44.107Z,6.13
2019-02-17T20:16:19.260Z,5.70
2019-02-17T20:18:54.546Z,5.70
2019-02-17T20:21:29.861Z,5.70
2019-02-17T20:24:05.072Z,5.93
2019-02-17T20:26:40.413Z,5.50
2019-02-17T20:29:15.624Z,5.80
2019-02-17T20:31:50.926Z,5.53
2019-02-17T20:34:26.157Z,5.80
2019-02-17T20:37:01.357Z,5.73
2019-02-17T20:39:36.506Z,6.13
2019-02-17T20:42:11.738Z,6.03
2019-02-17T20:44:46.885Z,5.87
2019-02-17T20:47:22.104Z,5.90
2019-02-17T20:49:57.235Z,6.10
2019-02-17T20:52:32.324Z,5.60
2019-02-17T20:55:07.613Z,7.90
2019-02-17T20:57:42.881Z,5.73
2019-02-17T21:00:18.693Z,6.30
2019-02-17T21:02:53.926Z,6.30
2019-02-17T21:05:29.626Z,6.43
2019-02-17T21:08:05.026Z,5.93
2019-02-17T21:10:40.169Z,6.10
2019-02-17T21:13:15.336Z,5.80
2019-02-17T21:15:50.521Z,6.60
2019-02-17T21:18:25.761Z,5.87
2019-02-17T21:21:00.892Z,6.20
2019-02-17T21:23:36.132Z,6.10
2019-02-17T21:26:11.274Z,6.60
2019-02-17T21:28:46.477Z,6.60
2019-02-17T21:31:21.686Z,6.53
2019-02-17T21:33:56.996Z,6.27
2019-02-17T21:36:32.122Z,6.57
2019-02-17T21:39:07.656Z,6.13
2019-02-17T21:41:42.862Z,6.07
2019-02-17T21:44:18.216Z,5.80
2019-02-17T21:46:53.422Z,6.40
2019-02-17T21:49:28.642Z,6.57
2019-02-17T21:52:03.846Z,6.17
2019-02-17T21:54:39.097Z,7.20
2019-02-17T21:57:14.376Z,6.60
2019-02-17T21:59:49.612Z,6.07
2019-02-17T22:02:24.749Z,6.33
2019-02-17T22:04:59.915Z,6.63
2019-02-17T22:07:35.230Z,5.97
2019-02-17T22:10:12.546Z,5.43
2019-02-17T22:12:47.752Z,6.50
2019-02-17T22:15:23.031Z,6.17
2019-02-17T22:17:58.246Z,6.53
2019-02-17T22:20:33.501Z,6.23
2019-02-17T22:23:08.712Z,6.23
2019-02-17T22:25:43.868Z,6.67
2019-02-17T22:28:19.139Z,7.10
2019-02-17T22:30:54.410Z,6.87
2019-02-17T22:33:29.612Z,7.00
2019-02-17T22:36:04.771Z,6.33
2019-02-17T22:38:39.970Z,7.03
2019-02-17T22:41:15.255Z,6.30
2019-02-17T22:43:50.531Z,6.43
2019-02-17T22:46:25.684Z,6.70
2019-02-17T22:49:00.888Z,6.43
2019-02-17T22:51:36.110Z,6.97
2019-02-17T22:54:11.253Z,6.43
2019-02-17T22:56:46.502Z,6.87
2019-02-17T22:59:21.654Z,6.67
2019-02-17T23:01:57.005Z,6.57
2019-02-17T23:04:32.166Z,6.60
2019-02-17T23:07:07.456Z,7.00
2019-02-17T23:09:42.595Z,6.60
2019-02-17T23:12:17.751Z,7.27
2019-02-17T23:14:52.966Z,6.67
2019-02-17T23:17:28.201Z,6.70
2019-02-17T23:20:03.320Z,6.73
2019-02-17T23:22:38.572Z,7.20
2019-02-17T23:25:13.709Z,7.23
2019-02-17T23:27:48.896Z,6.77
2019-02-17T23:30:24.107Z,7.33
2019-02-17T23:32:59.366Z,6.30
2019-02-17T23:35:34.587Z,6.43
2019-02-17T23:38:09.897Z,6.57
2019-02-17T23:40:45.117Z,6.70
2019-02-17T23:43:20.404Z,6.20
2019-02-17T23:45:55.605Z,7.00
2019-02-17T23:48:30.831Z,6.53
2019-02-17T23:51:06.114Z,6.67
2019-02-17T23:53:41.266Z,6.33
2019-02-17T23:56:16.468Z,6.67
2019-02-17T23:58:51.643Z,6.53
